OINR  Ramsar Airport

Add Bookmark

Iran

Status IATA
Operational RZR
Latitude Longitude
36° 54' 35" N 50° 40' 46" E
36.909901 50.679600
Local (DST + 5) UTC (GMT + 4)
Aug 21, 2014 08:30 Aug 21, 2014 16:00
Sunrise-Sunset Local UTC
Begin Civil Twilight 06:00 01:30
Sunrise 06:28 01:58
Sunset 07:52 15:22
End Civil Twilight 08:19 15:49

Current Weather

METAR Observed VFR
OINR 211500Z 35006KT 9999 SCT027 29/25 Q1009 Thu, Aug 21, 2014 @ 15:00 UTC
(1 Hour ago)
Visual Flight Rules
Wind Visibility Clouds Conditions
350° at 6 knots (11 kph) 10 km or more
  • Scattered at 2,700' AGL
  • No significant weather
Temperatures Readings Precipitation
Current Temp 29°C (84°F)
Dewpoint 25°C (77°F)
Heat Index 34°C (94°F)
Humidity 79%
Altimeter 29.79"Hg
Sea Level Pressure 1009mb
None Recorded

Additional weather within a 92.6km radius of OINR

Map ICAO Location
OINN 75km E (111°)

24 Hour Weather History

Loading
-

24 Hour Weather Graphs

Loading
-

CheckWX.com is intended as a tool to help pilots better visualize weather data. It is not intended as a substitute for an official weather briefing obtained from a Flight Service Station. CheckWX.com does not meet the FAA requirements for an official pre-flight weather briefing. Therefore, it's important that pilots still call and obtain an official FSS pre-flight weather briefing.